createdAt,value
2022-11-28T00:02:30.709Z,97818.06
2022-11-28T00:05:17.914Z,97813.66
2022-11-28T00:08:04.940Z,97813.44
2022-11-28T00:10:51.902Z,97812.47
2022-11-28T00:13:39.032Z,97804.16
2022-11-28T00:16:26.082Z,97796.09
2022-11-28T00:19:13.728Z,97791.69
2022-11-28T00:22:00.916Z,97781.16
2022-11-28T00:24:47.892Z,97774.56
2022-11-28T00:27:35.207Z,97760.63
2022-11-28T00:30:22.123Z,97767.72
2022-11-28T00:33:09.061Z,97755.25
2022-11-28T00:36:01.094Z,97755.50
2022-11-28T00:38:48.318Z,97759.16
2022-11-28T00:41:35.391Z,97747.66
2022-11-28T00:44:22.349Z,97745.94
2022-11-28T00:47:09.229Z,97750.13
2022-11-28T00:49:56.212Z,97744.00
2022-11-28T00:52:43.138Z,97744.25
2022-11-28T00:55:30.029Z,97739.81
2022-11-28T00:58:16.988Z,97729.56
2022-11-28T01:01:12.691Z,97727.59
2022-11-28T01:04:03.802Z,97723.94
2022-11-28T01:06:51.000Z,97733.47
2022-11-28T01:09:37.925Z,97732.75
2022-11-28T01:12:24.866Z,97734.47
2022-11-28T01:15:13.653Z,97734.94
2022-11-28T01:18:01.287Z,97729.31
2022-11-28T01:20:48.207Z,97729.81
2022-11-28T01:23:35.585Z,97729.53
2022-11-28T01:26:25.720Z,97725.66
2022-11-28T01:29:13.106Z,97727.09
2022-11-28T01:32:00.069Z,97725.38
2022-11-28T01:34:47.074Z,97725.88
2022-11-28T01:37:34.009Z,97733.47
2022-11-28T01:40:21.183Z,97730.03
2022-11-28T01:43:10.250Z,97733.00
2022-11-28T01:45:57.424Z,97735.91
2022-11-28T01:48:44.325Z,97721.22
2022-11-28T01:51:31.902Z,97725.16
2022-11-28T01:54:21.677Z,97732.00
2022-11-28T01:57:13.664Z,97733.97
2022-11-28T02:00:13.950Z,97725.88
2022-11-28T02:03:06.762Z,97716.78
2022-11-28T02:05:56.443Z,97717.78
2022-11-28T02:08:43.422Z,97714.84
2022-11-28T02:12:15.180Z,97708.22
2022-11-28T02:15:32.157Z,97704.78
2022-11-28T02:18:47.472Z,97697.47
2022-11-28T02:22:09.736Z,97701.41
2022-11-28T02:25:10.772Z,97704.06
2022-11-28T02:28:10.684Z,97691.59
2022-11-28T02:32:02.407Z,97692.09
2022-11-28T02:35:21.634Z,97690.38
2022-11-28T02:38:23.700Z,97690.41
2022-11-28T02:41:40.442Z,97689.66
2022-11-28T02:44:45.832Z,97685.72
2022-11-28T02:47:36.409Z,97676.91
2022-11-28T02:50:30.601Z,97687.19
2022-11-28T02:53:23.787Z,97677.91
2022-11-28T02:56:11.502Z,97683.31
2022-11-28T02:58:58.470Z,97679.38
2022-11-28T03:01:45.524Z,97678.13
2022-11-28T03:05:16.219Z,97674.47
2022-11-28T03:08:32.043Z,97672.06
2022-11-28T03:11:55.853Z,97670.59
2022-11-28T03:14:55.037Z,97671.03
2022-11-28T03:17:59.791Z,97672.03
2022-11-28T03:20:57.740Z,97662.03
2022-11-28T03:24:00.138Z,97660.28
2022-11-28T03:27:01.433Z,97654.66
2022-11-28T03:29:55.893Z,97654.84
2022-11-28T03:32:45.841Z,97647.28
2022-11-28T03:35:38.760Z,97645.56
2022-11-28T03:38:29.702Z,97656.59
2022-11-28T03:41:21.975Z,97654.88
2022-11-28T03:44:15.630Z,97642.88
2022-11-28T03:47:05.778Z,97638.47
2022-11-28T03:49:56.780Z,97633.59
2022-11-28T03:52:50.797Z,97644.63
2022-11-28T03:55:48.295Z,97642.94
2022-11-28T03:58:50.558Z,97638.78
2022-11-28T04:02:26.568Z,97636.34
2022-11-28T04:05:44.324Z,97633.84
2022-11-28T04:08:39.335Z,97625.81
2022-11-28T04:11:37.291Z,97633.84
2022-11-28T04:14:34.738Z,97636.06
2022-11-28T04:17:48.458Z,97639.00
2022-11-28T04:20:51.600Z,97639.75
2022-11-28T04:23:40.642Z,97643.91
2022-11-28T04:26:33.184Z,97645.16
2022-11-28T04:29:23.555Z,97649.56
2022-11-28T04:32:13.532Z,97647.84
2022-11-28T04:35:07.336Z,97648.34
2022-11-28T04:37:55.326Z,97648.34
2022-11-28T04:41:08.865Z,97640.75
2022-11-28T04:44:42.710Z,97640.53
2022-11-28T04:47:30.161Z,97643.97
2022-11-28T04:50:17.299Z,97635.16
2022-11-28T04:53:15.134Z,97630.50
2022-11-28T04:56:07.868Z,97631.00
2022-11-28T04:58:54.816Z,97632.47
2022-11-28T05:01:44.122Z,97624.88
2022-11-28T05:04:31.474Z,97621.97
2022-11-28T05:07:18.411Z,97624.16
2022-11-28T05:10:06.655Z,97625.88
2022-11-28T05:12:53.591Z,97628.28
2022-11-28T05:15:40.542Z,97615.09
2022-11-28T05:18:27.443Z,97614.13
2022-11-28T05:21:14.555Z,97615.84
2022-11-28T05:24:01.557Z,97608.25
2022-11-28T05:26:48.527Z,97611.91
2022-11-28T05:29:35.645Z,97611.91
2022-11-28T05:32:22.607Z,97613.88
2022-11-28T05:35:09.966Z,97608.00
2022-11-28T05:37:56.957Z,97602.88
2022-11-28T05:40:44.475Z,97609.47
2022-11-28T05:43:31.610Z,97590.91
2022-11-28T05:46:19.334Z,97598.00
2022-11-28T05:49:06.411Z,97597.75
2022-11-28T05:51:53.337Z,97593.56
2022-11-28T05:54:40.231Z,97591.63
2022-11-28T05:57:29.897Z,97592.13
2022-11-28T06:00:17.557Z,97589.69
2022-11-28T06:03:05.229Z,97588.19
2022-11-28T06:05:52.205Z,97582.84
2022-11-28T06:08:39.140Z,97591.63
2022-11-28T06:11:28.435Z,97585.03
2022-11-28T06:14:15.362Z,97586.75
2022-11-28T06:17:02.363Z,97595.53
2022-11-28T06:19:49.345Z,97591.38
2022-11-28T06:22:36.280Z,97599.44
2022-11-28T06:25:23.189Z,97604.56
2022-11-28T06:28:10.196Z,97602.34
2022-11-28T06:30:57.261Z,97606.03
2022-11-28T06:33:44.351Z,97596.75
2022-11-28T06:36:31.476Z,97606.03
2022-11-28T06:39:18.465Z,97606.28
2022-11-28T06:42:05.817Z,97607.25
2022-11-28T06:44:52.769Z,97610.69
2022-11-28T06:47:39.699Z,97612.16
2022-11-28T06:50:26.699Z,97619.97
2022-11-28T06:53:14.600Z,97620.22
2022-11-28T06:56:06.721Z,97619.47
2022-11-28T06:58:56.392Z,97623.84
2022-11-28T07:01:43.386Z,97620.44
2022-11-28T07:04:30.456Z,97618.47
2022-11-28T07:07:17.697Z,97616.53
2022-11-28T07:10:05.474Z,97620.44
2022-11-28T07:12:58.571Z,97616.28
2022-11-28T07:15:52.318Z,97622.63
2022-11-28T07:18:39.232Z,97619.69
2022-11-28T07:21:27.476Z,97619.97
2022-11-28T07:24:14.911Z,97614.31
2022-11-28T07:27:01.863Z,97623.88
2022-11-28T07:29:48.785Z,97627.81
2022-11-28T07:32:38.551Z,97621.69
2022-11-28T07:35:25.497Z,97621.41
2022-11-28T07:38:12.602Z,97620.44
2022-11-28T07:41:04.256Z,97631.91
2022-11-28T07:43:54.610Z,97626.50
2022-11-28T07:46:41.641Z,97628.91
2022-11-28T07:49:28.639Z,97635.03
2022-11-28T07:52:15.768Z,97642.13
2022-11-28T07:55:02.788Z,97640.41
2022-11-28T07:57:49.736Z,97635.53
2022-11-28T08:00:36.663Z,97633.56
2022-11-28T08:03:23.648Z,97646.31
2022-11-28T08:06:11.506Z,97636.78
2022-11-28T08:09:00.518Z,97630.59
2022-11-28T08:11:47.543Z,97630.38
2022-11-28T08:14:34.519Z,97637.94
2022-11-28T08:17:22.066Z,97630.63
2022-11-28T08:20:09.603Z,97632.59
2022-11-28T08:22:57.008Z,97640.88
2022-11-28T08:25:44.005Z,97633.06
2022-11-28T08:28:31.656Z,97623.88
2022-11-28T08:31:21.462Z,97629.97
2022-11-28T08:34:09.852Z,97626.75
2022-11-28T08:36:56.770Z,97617.97
2022-11-28T08:39:44.081Z,97618.19
2022-11-28T08:42:31.216Z,97608.63
2022-11-28T08:45:18.239Z,97601.97
2022-11-28T08:48:05.695Z,97595.59
2022-11-28T08:50:52.656Z,97600.69
2022-11-28T08:53:39.776Z,97599.72
2022-11-28T08:56:26.904Z,97605.28
2022-11-28T08:59:13.837Z,97601.63
2022-11-28T09:02:00.706Z,97597.34
2022-11-28T09:04:47.616Z,97590.31
2022-11-28T09:07:34.596Z,97587.13
2022-11-28T09:10:21.977Z,97585.59
2022-11-28T09:13:11.382Z,97582.09
2022-11-28T09:15:58.311Z,97572.88
2022-11-28T09:18:45.252Z,97572.81
2022-11-28T09:21:32.268Z,97572.69
2022-11-28T09:24:19.190Z,97574.78
2022-11-28T09:27:06.136Z,97576.28
2022-11-28T09:29:53.007Z,97564.66
2022-11-28T09:32:39.908Z,97567.56
2022-11-28T09:35:26.867Z,97548.56
2022-11-28T09:38:13.786Z,97545.84
2022-11-28T09:41:01.656Z,97537.75
2022-11-28T09:43:54.571Z,97535.88
2022-11-28T09:46:42.889Z,97533.69
2022-11-28T09:49:41.818Z,97523.50
2022-11-28T09:52:32.263Z,97515.97
2022-11-28T09:55:35.648Z,97508.41
2022-11-28T09:58:48.483Z,97502.19
2022-11-28T10:01:46.329Z,97501.97
2022-11-28T10:04:50.041Z,97501.75
2022-11-28T10:08:05.060Z,97499.06
2022-11-28T10:11:46.642Z,97493.06
2022-11-28T10:15:00.280Z,97493.78
2022-11-28T10:18:19.184Z,97485.41
2022-11-28T10:21:24.745Z,97481.53
2022-11-28T10:24:15.907Z,97490.03
2022-11-28T10:27:05.381Z,97490.59
2022-11-28T10:30:20.764Z,97482.56
2022-11-28T10:33:40.065Z,97491.13
2022-11-28T10:36:53.384Z,97477.28
2022-11-28T10:39:44.384Z,97475.63
2022-11-28T10:42:43.342Z,97473.81
2022-11-28T10:46:08.737Z,97472.69
2022-11-28T10:49:28.706Z,97468.69
2022-11-28T10:52:24.381Z,97467.38
2022-11-28T10:55:21.765Z,97461.44
2022-11-28T10:58:31.938Z,97466.13
2022-11-28T11:01:18.840Z,97465.94
2022-11-28T11:04:08.693Z,97467.56
2022-11-28T11:07:23.884Z,97463.44
2022-11-28T11:10:19.391Z,97462.66
2022-11-28T11:13:19.341Z,97466.72
2022-11-28T11:16:10.723Z,97476.09
2022-11-28T11:18:57.609Z,97475.19
2022-11-28T11:21:59.079Z,97476.31
2022-11-28T11:25:20.156Z,97476.22
2022-11-28T11:28:07.092Z,97469.47
2022-11-28T11:31:05.744Z,97477.91
2022-11-28T11:34:01.691Z,97486.34
2022-11-28T11:36:49.282Z,97483.72
2022-11-28T11:39:48.046Z,97473.84
2022-11-28T11:42:34.945Z,97481.94
2022-11-28T11:45:33.492Z,97475.91
2022-11-28T11:48:35.400Z,97486.22
2022-11-28T11:51:33.881Z,97484.63
2022-11-28T11:54:25.034Z,97474.34
2022-11-28T12:00:25.740Z,97481.00
2022-11-28T12:03:26.821Z,97468.44
2022-11-28T12:06:20.199Z,97466.13
2022-11-28T12:09:36.332Z,97474.66
2022-11-28T12:12:26.589Z,97473.19
2022-11-28T12:15:47.681Z,97461.66
2022-11-28T12:19:05.465Z,97474.47
2022-11-28T12:22:16.349Z,97471.13
2022-11-28T12:25:39.807Z,97461.16
2022-11-28T12:29:09.574Z,97464.88
2022-11-28T12:32:43.363Z,97466.66
2022-11-28T12:35:42.198Z,97472.69
2022-11-28T12:38:55.905Z,97476.66
2022-11-28T12:42:12.373Z,97477.78
2022-11-28T12:45:29.400Z,97481.34
2022-11-28T12:49:18.048Z,97480.16
2022-11-28T12:52:33.571Z,97478.19
2022-11-28T12:55:28.151Z,97482.06
2022-11-28T12:58:24.368Z,97480.91
2022-11-28T13:01:47.285Z,97485.69
2022-11-28T13:05:15.411Z,97491.63
2022-11-28T13:08:31.197Z,97487.38
2022-11-28T13:11:46.159Z,97470.69
2022-11-28T13:14:54.455Z,97485.38
2022-11-28T13:18:12.028Z,97476.81
2022-11-28T13:21:07.205Z,97480.44
2022-11-28T13:24:26.400Z,97474.06
2022-11-28T13:27:36.256Z,97482.72
2022-11-28T13:30:28.704Z,97473.50
2022-11-28T13:33:54.079Z,97471.22
2022-11-28T13:40:38.051Z,97472.03
2022-11-28T13:44:03.000Z,97470.78
2022-11-28T13:46:51.585Z,97473.63
2022-11-28T13:49:38.708Z,97478.59
2022-11-28T13:52:41.289Z,97479.63
2022-11-28T13:55:38.981Z,97484.22
2022-11-28T13:58:29.244Z,97490.78
2022-11-28T14:01:21.568Z,97487.03
2022-11-28T14:04:14.526Z,97476.63
2022-11-28T14:07:06.641Z,97490.03
2022-11-28T14:10:24.195Z,97501.34
2022-11-28T14:13:39.295Z,97502.06
2022-11-28T14:16:52.053Z,97507.09
2022-11-28T14:20:10.595Z,97507.53
2022-11-28T14:23:42.063Z,97495.97
2022-11-28T14:26:40.614Z,97499.09
2022-11-28T14:29:36.473Z,97495.59
2022-11-28T14:32:34.137Z,97495.91
2022-11-28T14:36:15.206Z,97493.81
2022-11-28T14:39:33.038Z,97504.53
2022-11-28T14:45:47.286Z,97501.38
2022-11-28T14:48:34.290Z,97498.16
2022-11-28T14:52:36.907Z,97509.03
2022-11-28T14:55:23.636Z,97509.66
2022-11-28T14:58:16.809Z,97509.44
2022-11-28T15:01:11.996Z,97510.38
2022-11-28T15:04:32.583Z,97518.19
2022-11-28T15:07:45.550Z,97515.59
2022-11-28T15:11:12.897Z,97516.09
2022-11-28T15:14:31.607Z,97503.38
2022-11-28T15:17:23.867Z,97506.91
2022-11-28T15:20:28.210Z,97514.38
2022-11-28T15:23:33.050Z,97515.84
2022-11-28T15:26:30.302Z,97517.31
2022-11-28T15:29:23.208Z,97516.22
2022-11-28T15:32:13.658Z,97517.72
2022-11-28T15:35:07.731Z,97517.38
2022-11-28T15:37:58.485Z,97516.34
2022-11-28T15:40:53.246Z,97513.66
2022-11-28T15:43:45.902Z,97512.16
2022-11-28T15:46:34.644Z,97517.56
2022-11-28T15:49:29.203Z,97524.03
2022-11-28T15:52:20.603Z,97521.63
2022-11-28T15:55:16.890Z,97529.78
2022-11-28T15:58:19.721Z,97528.63
2022-11-28T16:01:27.876Z,97532.38
2022-11-28T16:04:17.262Z,97535.72
2022-11-28T16:07:04.308Z,97537.78
2022-11-28T16:09:58.299Z,97527.53
2022-11-28T16:12:45.532Z,97529.22
2022-11-28T16:15:32.490Z,97542.06
2022-11-28T16:18:20.105Z,97538.00
2022-11-28T16:21:12.966Z,97534.63
2022-11-28T16:24:01.618Z,97534.72
2022-11-28T16:26:59.878Z,97539.88
2022-11-28T16:29:47.036Z,97536.66
2022-11-28T16:32:40.457Z,97528.28
2022-11-28T16:35:40.449Z,97528.28
2022-11-28T16:38:27.428Z,97526.28
2022-11-28T16:41:25.395Z,97523.59
2022-11-28T16:44:15.073Z,97516.97
2022-11-28T16:47:02.312Z,97524.59
2022-11-28T16:50:24.236Z,97516.22
2022-11-28T16:53:44.762Z,97517.81
2022-11-28T16:56:57.385Z,97513.97
2022-11-28T16:59:44.993Z,97511.03
2022-11-28T17:02:31.993Z,97514.56
2022-11-28T17:05:19.160Z,97524.56
2022-11-28T17:08:08.061Z,97526.59
2022-11-28T17:10:55.017Z,97524.91
2022-11-28T17:13:42.199Z,97516.59
2022-11-28T17:16:33.274Z,97521.41
2022-11-28T17:19:20.352Z,97514.03
2022-11-28T17:22:10.448Z,97517.75
2022-11-28T17:25:00.444Z,97513.81
2022-11-28T17:27:50.272Z,97520.91
2022-11-28T17:30:37.252Z,97515.50
2022-11-28T17:33:24.335Z,97515.63
2022-11-28T17:36:12.501Z,97516.06
2022-11-28T17:39:04.815Z,97511.09
2022-11-28T17:41:52.217Z,97519.38
2022-11-28T17:44:39.202Z,97518.22
2022-11-28T17:47:26.123Z,97519.50
2022-11-28T17:50:13.414Z,97515.31
2022-11-28T17:53:00.372Z,97518.38
2022-11-28T17:55:48.812Z,97514.75
2022-11-28T17:58:35.749Z,97512.69
2022-11-28T18:01:30.932Z,97505.75
2022-11-28T18:04:18.163Z,97509.22
2022-11-28T18:07:05.169Z,97503.53
2022-11-28T18:09:52.280Z,97507.00
2022-11-28T18:12:39.458Z,97496.00
2022-11-28T18:15:27.804Z,97498.47
2022-11-28T18:18:14.812Z,97501.41
2022-11-28T18:21:01.810Z,97488.63
2022-11-28T18:23:50.520Z,97494.03
2022-11-28T18:26:37.772Z,97491.56
2022-11-28T18:29:24.937Z,97492.06
2022-11-28T18:32:11.885Z,97489.66
2022-11-28T18:34:58.765Z,97494.91
2022-11-28T18:37:45.761Z,97490.91
2022-11-28T18:40:34.641Z,97496.59
2022-11-28T18:43:21.527Z,97490.16
2022-11-28T18:46:11.118Z,97490.16
2022-11-28T18:48:58.394Z,97501.47
2022-11-28T18:51:45.382Z,97496.78
2022-11-28T18:54:33.075Z,97500.44
2022-11-28T18:57:19.986Z,97499.28
2022-11-28T19:00:08.084Z,97502.75
2022-11-28T19:02:55.038Z,97503.72
2022-11-28T19:05:42.399Z,97501.75
2022-11-28T19:08:29.386Z,97506.44
2022-11-28T19:11:17.356Z,97515.78
2022-11-28T19:14:06.623Z,97518.63
2022-11-28T19:16:54.101Z,97516.50
2022-11-28T19:19:43.952Z,97506.94
2022-11-28T19:22:31.176Z,97514.75
2022-11-28T19:25:18.108Z,97510.53
2022-11-28T19:28:05.310Z,97500.69
2022-11-28T19:30:52.735Z,97505.84
2022-11-28T19:33:39.543Z,97499.94
2022-11-28T19:36:27.091Z,97501.47
2022-11-28T19:39:20.300Z,97503.81
2022-11-28T19:42:07.478Z,97505.03
2022-11-28T19:44:54.571Z,97509.22
2022-11-28T19:47:42.389Z,97503.06
2022-11-28T19:50:29.299Z,97505.47
2022-11-28T19:53:16.720Z,97514.25
2022-11-28T19:56:06.001Z,97503.44
2022-11-28T19:58:52.949Z,97504.44
2022-11-28T20:01:40.008Z,97501.31
2022-11-28T20:04:26.956Z,97501.41
2022-11-28T20:07:13.938Z,97503.97
2022-11-28T20:10:00.948Z,97500.88
2022-11-28T20:12:48.665Z,97502.03
2022-11-28T20:15:36.658Z,97510.09
2022-11-28T20:18:23.532Z,97508.16
2022-11-28T20:21:13.287Z,97511.16
2022-11-28T20:24:07.292Z,97512.47
2022-11-28T20:26:54.228Z,97501.72
2022-11-28T20:29:41.088Z,97500.28
2022-11-28T20:32:28.467Z,97516.63
2022-11-28T20:35:15.336Z,97516.63
2022-11-28T20:38:02.238Z,97513.25
2022-11-28T20:40:49.176Z,97506.66
2022-11-28T20:43:38.343Z,97504.00
2022-11-28T20:46:30.535Z,97503.59
2022-11-28T20:49:18.227Z,97505.69
2022-11-28T20:52:05.416Z,97506.00
2022-11-28T20:54:52.291Z,97507.78
2022-11-28T20:57:39.145Z,97504.31
2022-11-28T21:00:26.905Z,97498.00
2022-11-28T21:03:13.839Z,97502.88
2022-11-28T21:06:01.422Z,97496.97
2022-11-28T21:08:48.823Z,97500.97
2022-11-28T21:11:56.300Z,97501.41
2022-11-28T21:14:43.290Z,97506.88
2022-11-28T21:17:30.225Z,97511.81
2022-11-28T21:20:17.111Z,97508.84
2022-11-28T21:23:04.029Z,97510.13
2022-11-28T21:25:50.952Z,97513.06
2022-11-28T21:28:40.335Z,97506.09
2022-11-28T21:31:30.326Z,97501.19
2022-11-28T21:34:19.042Z,97499.22
2022-11-28T21:37:05.981Z,97492.88
2022-11-28T21:39:52.907Z,97500.53
2022-11-28T21:42:39.863Z,97488.25
2022-11-28T21:45:26.920Z,97495.13
2022-11-28T21:48:13.822Z,97495.50
2022-11-28T21:51:01.528Z,97491.13
2022-11-28T21:53:48.702Z,97490.63
2022-11-28T21:56:35.603Z,97498.72
2022-11-28T21:59:22.695Z,97493.09
2022-11-28T22:02:15.981Z,97496.03
2022-11-28T22:05:03.245Z,97493.75
2022-11-28T22:07:50.223Z,97491.78
2022-11-28T22:10:37.727Z,97490.53
2022-11-28T22:13:24.588Z,97494.06
2022-11-28T22:16:26.328Z,97497.72
2022-11-28T22:19:13.541Z,97496.31
2022-11-28T22:22:00.458Z,97488.94
2022-11-28T22:24:47.542Z,97492.97
2022-11-28T22:27:35.556Z,97490.19
2022-11-28T22:30:22.535Z,97484.34
2022-11-28T22:33:09.424Z,97492.66
2022-11-28T22:36:06.839Z,97489.22
2022-11-28T22:38:55.880Z,97490.22
2022-11-28T22:41:42.887Z,97496.47
2022-11-28T22:44:29.790Z,97501.41
2022-11-28T22:47:16.638Z,97502.84
2022-11-28T22:50:03.912Z,97492.84
2022-11-28T22:52:50.875Z,97494.06
2022-11-28T22:55:37.779Z,97496.19
2022-11-28T22:58:24.706Z,97495.53
2022-11-28T23:01:24.032Z,97490.78
2022-11-28T23:04:10.999Z,97492.19
2022-11-28T23:06:57.902Z,97489.22
2022-11-28T23:09:44.808Z,97496.16
2022-11-28T23:12:31.719Z,97493.72
2022-11-28T23:15:18.631Z,97484.47
2022-11-28T23:18:05.556Z,97483.44
2022-11-28T23:20:56.005Z,97486.81
2022-11-28T23:23:44.107Z,97486.81
2022-11-28T23:26:32.120Z,97488.81
2022-11-28T23:29:19.792Z,97497.56
2022-11-28T23:32:06.756Z,97495.47
2022-11-28T23:34:53.728Z,97491.47
2022-11-28T23:37:40.648Z,97496.63
2022-11-28T23:40:28.640Z,97492.28
2022-11-28T23:43:15.741Z,97483.44
2022-11-28T23:46:03.017Z,97486.19
2022-11-28T23:48:50.197Z,97486.69
2022-11-28T23:51:38.428Z,97486.66
2022-11-28T23:54:25.345Z,97488.94
2022-11-28T23:57:12.243Z,97484.63
